createdAt,value
2023-01-30T00:00:11.915Z,19.77
2023-01-30T00:05:35.053Z,20.57
2023-01-30T00:10:38.285Z,18.67
2023-01-30T00:15:42.526Z,17.50
2023-01-30T00:20:45.630Z,22.20
2023-01-30T00:25:48.782Z,18.90
2023-01-30T00:30:53.323Z,15.43
2023-01-30T00:35:57.542Z,17.17
2023-01-30T00:41:00.710Z,17.63
2023-01-30T00:46:25.418Z,19.23
2023-01-30T00:51:28.529Z,21.73
2023-01-30T00:56:31.628Z,19.83
2023-01-30T01:01:34.763Z,16.17
2023-01-30T01:06:39.122Z,16.63
2023-01-30T01:11:42.188Z,17.83
2023-01-30T01:16:45.480Z,19.57
2023-01-30T01:21:48.703Z,19.83
2023-01-30T01:26:51.827Z,15.70
2023-01-30T01:31:55.033Z,16.53
2023-01-30T01:36:58.176Z,19.33
2023-01-30T01:42:01.240Z,20.50
2023-01-30T01:47:04.367Z,19.03
2023-01-30T01:52:16.241Z,16.10
2023-01-30T01:57:34.036Z,15.87
2023-01-30T02:02:37.431Z,18.27
2023-01-30T02:07:50.264Z,19.60
2023-01-30T02:12:53.407Z,16.83
2023-01-30T02:17:56.486Z,20.40
2023-01-30T02:23:37.058Z,18.33
2023-01-30T02:28:49.863Z,17.10
2023-01-30T02:34:20.167Z,19.73
2023-01-30T02:39:42.460Z,15.07
2023-01-30T02:45:00.308Z,20.03
2023-01-30T02:50:10.935Z,18.33
2023-01-30T02:55:26.402Z,16.50
2023-01-30T03:00:52.381Z,14.97
2023-01-30T03:06:19.139Z,17.53
2023-01-30T03:11:26.687Z,14.80
2023-01-30T03:16:38.475Z,14.17
2023-01-30T03:21:45.997Z,14.67
2023-01-30T03:26:57.111Z,14.13
2023-01-30T03:32:00.260Z,17.30
2023-01-30T03:37:04.959Z,15.87
2023-01-30T03:42:08.959Z,15.20
2023-01-30T03:47:12.087Z,15.67
2023-01-30T03:52:15.318Z,18.30
2023-01-30T03:57:18.498Z,14.77
2023-01-30T04:02:23.528Z,17.37
2023-01-30T04:07:30.267Z,17.47
2023-01-30T04:12:33.444Z,13.63
2023-01-30T04:17:36.860Z,14.87
2023-01-30T04:22:39.933Z,13.17
2023-01-30T04:27:43.687Z,11.90
2023-01-30T04:32:46.869Z,15.17
2023-01-30T04:37:50.091Z,13.00
2023-01-30T04:42:53.218Z,13.73
2023-01-30T04:47:56.358Z,14.47
2023-01-30T04:52:59.511Z,15.80
2023-01-30T04:58:02.647Z,18.03
2023-01-30T05:03:06.898Z,18.77
2023-01-30T05:08:10.112Z,15.63
2023-01-30T05:13:13.193Z,14.87
2023-01-30T05:18:16.208Z,13.40
2023-01-30T05:23:19.246Z,15.43
2023-01-30T05:28:22.412Z,16.97
2023-01-30T05:33:25.465Z,13.37
2023-01-30T05:38:28.893Z,13.90
2023-01-30T05:43:33.014Z,12.93
2023-01-30T05:48:36.150Z,17.77
2023-01-30T05:53:39.214Z,12.63
2023-01-30T05:58:42.352Z,14.23
2023-01-30T06:03:45.895Z,13.27
2023-01-30T06:08:53.220Z,14.87
2023-01-30T06:13:56.704Z,14.93
2023-01-30T06:18:59.809Z,15.20
2023-01-30T06:24:03.832Z,14.27
2023-01-30T06:29:06.971Z,15.97
2023-01-30T06:34:11.467Z,15.17
2023-01-30T06:39:14.518Z,15.83
2023-01-30T06:44:18.731Z,17.10
2023-01-30T06:49:21.848Z,18.37
2023-01-30T06:54:25.186Z,16.63
2023-01-30T06:59:28.310Z,15.43
2023-01-30T07:04:31.585Z,12.33
2023-01-30T07:09:34.697Z,12.90
2023-01-30T07:14:37.770Z,14.47
2023-01-30T07:19:40.976Z,14.53
2023-01-30T07:24:46.633Z,16.03
2023-01-30T07:29:51.312Z,13.27
2023-01-30T07:34:55.024Z,18.70
2023-01-30T07:39:58.657Z,14.00
2023-01-30T07:45:01.695Z,15.53
2023-01-30T07:50:05.325Z,15.30
2023-01-30T07:55:08.805Z,15.87
2023-01-30T08:00:12.735Z,16.70
2023-01-30T08:05:16.267Z,10.83
2023-01-30T08:10:19.708Z,12.77
2023-01-30T08:15:23.543Z,17.00
2023-01-30T08:20:29.728Z,12.90
2023-01-30T08:25:33.489Z,14.10
2023-01-30T08:30:48.167Z,12.70
2023-01-30T08:35:52.233Z,12.13
2023-01-30T08:40:57.361Z,13.10
2023-01-30T08:46:00.576Z,18.60
2023-01-30T08:51:03.759Z,13.10
2023-01-30T08:56:07.517Z,17.17
2023-01-30T09:01:10.664Z,13.73
2023-01-30T09:06:14.000Z,17.13
2023-01-30T09:11:17.433Z,16.27
2023-01-30T09:16:20.817Z,10.20
2023-01-30T09:21:24.825Z,17.90
2023-01-30T09:26:27.922Z,14.63
2023-01-30T09:31:31.116Z,14.17
2023-01-30T09:36:34.583Z,11.73
2023-01-30T09:42:05.688Z,13.87
2023-01-30T09:47:14.347Z,13.27
2023-01-30T09:52:27.899Z,15.23
2023-01-30T09:57:30.982Z,13.47
2023-01-30T10:03:10.316Z,12.13
2023-01-30T10:08:31.645Z,11.83
2023-01-30T10:14:00.978Z,16.10
2023-01-30T10:19:35.266Z,13.07
2023-01-30T10:24:44.820Z,13.97
2023-01-30T10:29:59.081Z,15.83
2023-01-30T10:35:18.481Z,16.63
2023-01-30T10:40:30.750Z,15.67
2023-01-30T10:46:02.495Z,19.03
2023-01-30T10:51:22.820Z,12.20
2023-01-30T10:56:49.960Z,16.00
2023-01-30T11:02:07.451Z,20.17
2023-01-30T11:07:11.802Z,37.23
2023-01-30T11:12:15.466Z,22.90
2023-01-30T11:17:20.393Z,26.97
2023-01-30T11:22:29.224Z,15.87
2023-01-30T11:27:34.891Z,22.53
2023-01-30T11:32:38.144Z,17.87
2023-01-30T11:37:43.352Z,6.80
2023-01-30T11:43:05.154Z,13.53
2023-01-30T11:49:01.237Z,11.97
2023-01-30T11:54:01.406Z,7.40
2023-01-30T11:59:29.390Z,10.67
2023-01-30T12:04:32.913Z,12.57
2023-01-30T12:09:40.726Z,10.50
2023-01-30T12:14:49.672Z,9.13
2023-01-30T12:20:25.254Z,13.10
2023-01-30T12:25:36.177Z,11.63
2023-01-30T12:30:58.374Z,20.67
2023-01-30T12:36:20.281Z,33.40
2023-01-30T12:41:43.904Z,7.63
2023-01-30T12:47:12.332Z,10.70
2023-01-30T12:52:42.180Z,12.73
2023-01-30T12:58:00.021Z,10.60
2023-01-30T13:03:40.678Z,10.90
2023-01-30T13:09:00.421Z,10.67
2023-01-30T13:14:17.721Z,12.83
2023-01-30T13:19:31.212Z,9.07
2023-01-30T13:25:19.250Z,13.43
2023-01-30T13:30:25.786Z,11.00
2023-01-30T13:35:36.523Z,8.07
2023-01-30T13:40:43.663Z,8.07
2023-01-30T13:45:50.848Z,10.57
2023-01-30T13:51:15.463Z,9.93
2023-01-30T13:56:43.118Z,5.97
2023-01-30T14:02:04.884Z,10.63
2023-01-30T14:07:40.873Z,11.33
2023-01-30T14:12:45.345Z,9.53
2023-01-30T14:17:58.110Z,6.57
2023-01-30T14:23:15.479Z,5.63
2023-01-30T14:28:18.518Z,6.30
2023-01-30T14:33:21.867Z,6.20
2023-01-30T14:38:26.493Z,6.40
2023-01-30T14:43:39.129Z,5.00
2023-01-30T14:48:45.590Z,5.83
2023-01-30T14:53:58.911Z,8.37
2023-01-30T14:59:07.456Z,5.50
2023-01-30T15:04:16.595Z,6.23
2023-01-30T15:09:23.780Z,5.00
2023-01-30T15:14:40.636Z,7.43
2023-01-30T15:20:01.611Z,6.97
2023-01-30T15:25:31.180Z,7.07
2023-01-30T15:30:58.713Z,5.57
2023-01-30T15:36:27.262Z,6.83
2023-01-30T15:41:36.787Z,8.20
2023-01-30T15:47:05.562Z,8.70
2023-01-30T15:52:16.439Z,10.63
2023-01-30T15:57:29.983Z,6.77
2023-01-30T16:02:36.460Z,6.40
2023-01-30T16:07:39.844Z,11.60
2023-01-30T16:12:43.233Z,7.97
2023-01-30T16:17:58.900Z,5.50
2023-01-30T16:23:03.375Z,5.63
2023-01-30T16:28:07.202Z,5.37
2023-01-30T16:33:12.545Z,7.63
2023-01-30T16:38:46.782Z,5.80
2023-01-30T16:44:08.214Z,6.57
2023-01-30T16:49:29.745Z,7.13
2023-01-30T16:54:37.842Z,6.30
2023-01-30T16:59:41.649Z,30.10
2023-01-30T17:04:45.471Z,14.70
2023-01-30T17:09:49.339Z,14.97
2023-01-30T17:15:12.909Z,10.77
2023-01-30T17:20:17.945Z,9.67
2023-01-30T17:25:33.935Z,5.37
2023-01-30T17:30:39.200Z,5.70
2023-01-30T17:35:46.443Z,5.23
2023-01-30T17:40:50.410Z,3.53
2023-01-30T17:45:55.563Z,3.30
2023-01-30T17:51:00.611Z,6.13
2023-01-30T17:56:05.461Z,8.43
2023-01-30T18:01:15.909Z,7.63
2023-01-30T18:06:20.200Z,6.87
2023-01-30T18:11:28.232Z,4.43
2023-01-30T18:16:37.780Z,4.63
2023-01-30T18:21:46.225Z,8.63
2023-01-30T18:26:54.772Z,4.23
2023-01-30T18:32:06.347Z,4.17
2023-01-30T18:37:14.846Z,4.27
2023-01-30T18:42:19.647Z,3.10
2023-01-30T18:47:25.419Z,5.63
2023-01-30T18:52:30.452Z,3.63
2023-01-30T18:57:35.096Z,4.53
2023-01-30T19:02:51.170Z,5.20
2023-01-30T19:07:58.778Z,5.00
2023-01-30T19:13:22.525Z,3.93
2023-01-30T19:18:30.099Z,7.20
2023-01-30T19:23:35.858Z,4.97
2023-01-30T19:28:50.139Z,3.27
2023-01-30T19:33:58.574Z,7.10
2023-01-30T19:39:06.687Z,7.47
2023-01-30T19:44:13.236Z,4.63
2023-01-30T19:49:18.217Z,6.90
2023-01-30T19:54:24.147Z,6.33
2023-01-30T19:59:28.970Z,11.03
2023-01-30T20:04:34.795Z,4.30
2023-01-30T20:09:41.215Z,7.33
2023-01-30T20:14:48.671Z,6.43
2023-01-30T20:19:59.211Z,9.97
2023-01-30T20:25:04.574Z,5.73
2023-01-30T20:30:11.727Z,12.50
2023-01-30T20:35:16.799Z,9.50
2023-01-30T20:40:23.044Z,9.03
2023-01-30T20:45:31.600Z,5.63
2023-01-30T20:50:36.197Z,2.60
2023-01-30T20:55:41.561Z,10.57
2023-01-30T21:00:46.082Z,10.53
2023-01-30T21:05:58.291Z,10.70
2023-01-30T21:11:16.602Z,5.87
2023-01-30T21:16:25.522Z,5.43
2023-01-30T21:21:40.948Z,6.07
2023-01-30T21:26:46.643Z,15.57
2023-01-30T21:31:51.512Z,8.17
2023-01-30T21:37:13.520Z,10.57
2023-01-30T21:42:35.640Z,7.60
2023-01-30T21:47:39.846Z,8.77
2023-01-30T21:52:43.769Z,6.47
2023-01-30T21:57:47.683Z,10.43
2023-01-30T22:02:51.191Z,6.57
2023-01-30T22:07:55.562Z,10.50
2023-01-30T22:13:00.054Z,4.20
2023-01-30T22:18:04.330Z,7.13
2023-01-30T22:23:07.523Z,7.33
2023-01-30T22:28:10.767Z,2.90
2023-01-30T22:33:14.733Z,9.37
2023-01-30T22:38:17.794Z,7.13
2023-01-30T22:43:20.902Z,9.03
2023-01-30T22:48:24.487Z,11.27
2023-01-30T22:53:31.132Z,9.40
2023-01-30T22:58:35.699Z,9.17
2023-01-30T23:03:40.752Z,11.47
2023-01-30T23:08:47.080Z,3.90
2023-01-30T23:13:52.532Z,7.73
2023-01-30T23:18:56.115Z,7.33
2023-01-30T23:24:02.063Z,6.50
2023-01-30T23:29:08.131Z,9.93
2023-01-30T23:34:19.534Z,6.17
2023-01-30T23:39:22.928Z,5.20
2023-01-30T23:44:26.231Z,10.87
2023-01-30T23:49:29.553Z,4.40
2023-01-30T23:54:32.993Z,11.97
2023-01-30T23:59:36.420Z,8.63
